createdAt,value
2022-12-12T00:00:27.024Z,73.21
2022-12-12T00:02:53.520Z,74.50
2022-12-12T00:05:20.148Z,74.39
2022-12-12T00:07:46.553Z,74.85
2022-12-12T00:10:13.283Z,73.81
2022-12-12T00:12:40.144Z,74.24
2022-12-12T00:15:07.263Z,73.92
2022-12-12T00:17:34.276Z,75.02
2022-12-12T00:20:00.707Z,74.25
2022-12-12T00:22:27.141Z,73.88
2022-12-12T00:24:53.569Z,74.84
2022-12-12T00:27:20.023Z,74.12
2022-12-12T00:29:51.788Z,73.35
2022-12-12T00:32:18.199Z,74.93
2022-12-12T00:34:44.638Z,74.21
2022-12-12T00:37:11.043Z,74.99
2022-12-12T00:39:37.556Z,74.42
2022-12-12T00:42:03.995Z,74.79
2022-12-12T00:44:30.406Z,74.80
2022-12-12T00:46:56.883Z,75.05
2022-12-12T00:49:23.316Z,74.32
2022-12-12T00:51:49.752Z,74.37
2022-12-12T00:54:16.189Z,74.43
2022-12-12T00:56:43.062Z,74.35
2022-12-12T00:59:09.500Z,74.86
2022-12-12T01:01:36.373Z,75.45
2022-12-12T01:04:04.705Z,75.15
2022-12-12T01:06:31.650Z,75.25
2022-12-12T01:08:58.171Z,74.11
2022-12-12T01:11:25.133Z,75.25
2022-12-12T01:13:52.968Z,74.62
2022-12-12T01:16:19.779Z,75.01
2022-12-12T01:18:46.426Z,74.58
2022-12-12T01:21:15.467Z,74.17
2022-12-12T01:23:42.384Z,74.74
2022-12-12T01:26:15.007Z,74.64
2022-12-12T01:28:42.552Z,75.93
2022-12-12T01:31:09.502Z,74.32
2022-12-12T01:33:36.153Z,74.96
2022-12-12T01:36:03.017Z,74.84
2022-12-12T01:38:29.391Z,74.41
2022-12-12T01:40:55.776Z,74.58
2022-12-12T01:43:24.058Z,75.07
2022-12-12T01:46:00.059Z,75.39
2022-12-12T01:48:39.416Z,74.71
2022-12-12T01:51:10.850Z,74.51
2022-12-12T01:53:37.285Z,74.40
2022-12-12T01:56:08.976Z,75.46
2022-12-12T01:58:35.580Z,75.64
2022-12-12T02:01:01.994Z,74.78
2022-12-12T02:03:28.585Z,74.90
2022-12-12T02:05:59.871Z,74.93
2022-12-12T02:08:27.258Z,74.08
2022-12-12T02:10:53.752Z,74.08
2022-12-12T02:13:26.614Z,74.12
2022-12-12T02:16:20.715Z,74.38
2022-12-12T02:19:03.212Z,73.93
2022-12-12T02:21:33.664Z,74.83
2022-12-12T02:24:25.769Z,74.11
2022-12-12T02:27:23.541Z,75.29
2022-12-12T02:30:04.988Z,75.50
2022-12-12T02:32:51.993Z,75.16
2022-12-12T02:35:34.467Z,75.05
2022-12-12T02:38:19.016Z,73.83
2022-12-12T02:41:07.331Z,74.50
2022-12-12T02:43:43.688Z,74.89
2022-12-12T02:46:21.027Z,73.89
2022-12-12T02:49:02.579Z,73.73
2022-12-12T02:51:31.879Z,73.88
2022-12-12T02:53:59.839Z,73.72
2022-12-12T02:56:44.856Z,74.24
2022-12-12T02:59:24.197Z,74.83
2022-12-12T03:02:19.907Z,74.54
2022-12-12T03:05:19.982Z,74.98
2022-12-12T03:07:49.229Z,74.04
2022-12-12T03:10:24.644Z,73.38
2022-12-12T03:13:00.723Z,74.53
2022-12-12T03:15:45.396Z,74.61
2022-12-12T03:18:34.983Z,74.19
2022-12-12T03:21:10.369Z,74.89
2022-12-12T03:23:44.361Z,75.07
2022-12-12T03:26:17.661Z,74.61
2022-12-12T03:28:52.501Z,74.23
2022-12-12T03:31:24.584Z,73.49
2022-12-12T03:34:01.944Z,73.71
2022-12-12T03:36:37.960Z,73.85
2022-12-12T03:39:12.343Z,74.06
2022-12-12T03:41:48.433Z,73.34
2022-12-12T03:44:21.019Z,72.44
2022-12-12T03:47:06.278Z,74.02
2022-12-12T03:49:35.663Z,72.41
2022-12-12T03:52:10.258Z,73.44
2022-12-12T03:54:53.991Z,73.43
2022-12-12T03:57:27.130Z,72.79
2022-12-12T04:00:05.666Z,72.89
2022-12-12T04:02:46.941Z,72.03
2022-12-12T04:05:28.432Z,73.31
2022-12-12T04:08:07.828Z,73.15
2022-12-12T04:11:10.725Z,71.86
2022-12-12T04:13:53.924Z,71.49
2022-12-12T04:16:32.736Z,72.18
2022-12-12T04:19:08.041Z,72.52
2022-12-12T04:22:14.072Z,72.67
2022-12-12T04:24:50.573Z,71.96
2022-12-12T04:27:22.224Z,72.21
2022-12-12T04:29:53.298Z,73.06
2022-12-12T04:32:28.514Z,71.95
2022-12-12T04:34:57.732Z,71.96
2022-12-12T04:37:30.760Z,72.94
2022-12-12T04:40:01.441Z,71.84
2022-12-12T04:42:33.588Z,72.41
2022-12-12T04:45:10.576Z,73.12
2022-12-12T04:47:39.320Z,71.81
2022-12-12T04:50:09.275Z,73.07
2022-12-12T04:52:37.112Z,73.10
2022-12-12T04:55:09.733Z,72.99
2022-12-12T04:57:41.081Z,73.27
2022-12-12T05:00:09.617Z,72.01
2022-12-12T05:02:47.736Z,72.89
2022-12-12T05:05:18.308Z,72.75
2022-12-12T05:07:59.999Z,72.62
2022-12-12T05:10:26.446Z,72.40
2022-12-12T05:12:58.290Z,72.62
2022-12-12T05:15:25.867Z,73.50
2022-12-12T05:18:00.237Z,73.37
2022-12-12T05:20:26.693Z,73.39
2022-12-12T05:22:53.202Z,73.09
2022-12-12T05:25:19.626Z,73.26
2022-12-12T05:27:46.017Z,73.12
2022-12-12T05:30:13.029Z,72.33
2022-12-12T05:32:39.527Z,73.34
2022-12-12T05:35:07.157Z,73.16
2022-12-12T05:37:33.741Z,73.72
2022-12-12T05:40:00.173Z,73.57
2022-12-12T05:42:26.718Z,72.37
2022-12-12T05:44:53.265Z,71.97
2022-12-12T05:47:19.742Z,73.01
2022-12-12T05:49:46.276Z,72.60
2022-12-12T05:52:12.638Z,72.69
2022-12-12T05:54:40.380Z,72.47
2022-12-12T05:57:07.129Z,72.14
2022-12-12T05:59:33.518Z,71.97
2022-12-12T06:02:00.133Z,71.95
2022-12-12T06:04:26.667Z,71.82
2022-12-12T06:06:53.077Z,72.24
2022-12-12T06:09:19.540Z,72.46
2022-12-12T06:11:45.950Z,71.97
2022-12-12T06:14:12.329Z,71.92
2022-12-12T06:16:38.813Z,71.62
2022-12-12T06:19:05.399Z,72.38
2022-12-12T06:21:31.858Z,72.13
2022-12-12T06:23:58.251Z,72.22
2022-12-12T06:26:24.730Z,72.27
2022-12-12T06:28:51.157Z,72.75
2022-12-12T06:31:17.869Z,71.57
2022-12-12T06:33:44.778Z,71.94
2022-12-12T06:36:23.668Z,72.27
2022-12-12T06:38:55.411Z,72.67
2022-12-12T06:41:23.089Z,72.60
2022-12-12T06:43:50.064Z,71.81
2022-12-12T06:46:19.615Z,71.70
2022-12-12T06:48:46.388Z,72.14
2022-12-12T06:51:36.298Z,72.19
2022-12-12T06:54:02.950Z,71.57
2022-12-12T06:56:29.340Z,72.75
2022-12-12T06:58:55.857Z,72.02
2022-12-12T07:01:23.544Z,72.33
2022-12-12T07:03:52.205Z,71.70
2022-12-12T07:06:21.332Z,71.68
2022-12-12T07:08:48.398Z,70.57
2022-12-12T07:11:17.595Z,71.17
2022-12-12T07:13:44.586Z,70.90
2022-12-12T07:16:11.417Z,71.59
2022-12-12T07:18:37.904Z,71.13
2022-12-12T07:21:09.058Z,70.83
2022-12-12T07:23:35.772Z,72.21
2022-12-12T07:26:08.716Z,71.94
2022-12-12T07:28:35.662Z,70.55
2022-12-12T07:31:07.033Z,71.35
2022-12-12T07:33:43.066Z,70.42
2022-12-12T07:36:11.533Z,71.51
2022-12-12T07:38:38.153Z,71.15
2022-12-12T07:41:06.376Z,70.25
2022-12-12T07:43:41.416Z,71.00
2022-12-12T07:46:11.688Z,69.88
2022-12-12T07:48:38.267Z,70.52
2022-12-12T07:51:04.799Z,71.06
2022-12-12T07:53:31.508Z,70.85
2022-12-12T07:55:58.297Z,70.30
2022-12-12T07:58:24.741Z,70.49
2022-12-12T08:00:51.217Z,70.41
2022-12-12T08:03:17.624Z,70.76
2022-12-12T08:05:44.100Z,70.83
2022-12-12T08:08:11.016Z,69.33
2022-12-12T08:10:41.410Z,70.94
2022-12-12T08:13:08.430Z,70.06
2022-12-12T08:15:34.892Z,70.16
2022-12-12T08:18:01.496Z,70.94
2022-12-12T08:20:27.890Z,69.82
2022-12-12T08:22:54.373Z,69.88
2022-12-12T08:25:21.957Z,70.26
2022-12-12T08:27:48.403Z,70.39
2022-12-12T08:30:14.889Z,69.99
2022-12-12T08:32:41.307Z,69.86
2022-12-12T08:35:08.356Z,69.59
2022-12-12T08:37:34.821Z,69.01
2022-12-12T08:40:01.293Z,69.55
2022-12-12T08:42:27.790Z,70.17
2022-12-12T08:44:54.293Z,69.93
2022-12-12T08:47:20.721Z,68.73
2022-12-12T08:49:47.146Z,68.98
2022-12-12T08:52:13.560Z,68.60
2022-12-12T08:54:40.034Z,68.76
2022-12-12T08:57:06.462Z,69.02
2022-12-12T08:59:32.950Z,69.27
2022-12-12T09:01:59.489Z,68.81
2022-12-12T09:04:25.980Z,69.06
2022-12-12T09:06:52.674Z,69.23
2022-12-12T09:09:19.079Z,70.25
2022-12-12T09:11:45.496Z,70.47
2022-12-12T09:14:12.081Z,69.31
2022-12-12T09:16:38.533Z,69.18
2022-12-12T09:19:05.033Z,70.17
2022-12-12T09:21:31.785Z,69.52
2022-12-12T09:23:58.822Z,69.44
2022-12-12T09:26:25.207Z,70.40
2022-12-12T09:28:51.621Z,70.27
2022-12-12T09:31:18.182Z,69.01
2022-12-12T09:33:44.715Z,69.53
2022-12-12T09:36:13.037Z,69.07
2022-12-12T09:38:39.643Z,68.62
2022-12-12T09:41:32.227Z,69.07
2022-12-12T09:44:12.499Z,68.96
2022-12-12T09:46:57.186Z,69.30
2022-12-12T09:49:47.792Z,69.42
2022-12-12T09:52:27.714Z,68.73
2022-12-12T09:54:59.266Z,70.03
2022-12-12T09:57:39.638Z,68.68
2022-12-12T10:00:10.118Z,69.13
2022-12-12T10:02:42.428Z,69.62
2022-12-12T10:05:28.213Z,69.04
2022-12-12T10:08:22.153Z,68.56
2022-12-12T10:10:53.989Z,69.91
2022-12-12T10:13:29.946Z,69.01
2022-12-12T10:16:16.814Z,68.78
2022-12-12T10:18:48.489Z,69.44
2022-12-12T10:21:19.983Z,69.75
2022-12-12T10:23:56.033Z,69.14
2022-12-12T10:26:27.705Z,68.95
2022-12-12T10:29:00.097Z,68.91
2022-12-12T10:31:40.491Z,68.66
2022-12-12T10:34:38.581Z,68.53
2022-12-12T10:37:14.589Z,68.41
2022-12-12T10:40:13.365Z,67.94
2022-12-12T10:42:50.197Z,67.50
2022-12-12T10:45:40.778Z,67.69
2022-12-12T10:48:07.266Z,67.13
2022-12-12T10:50:45.796Z,67.19
2022-12-12T10:53:12.544Z,67.15
2022-12-12T10:55:44.239Z,67.16
2022-12-12T10:58:10.874Z,67.28
2022-12-12T11:00:42.327Z,67.17
2022-12-12T11:03:11.935Z,66.58
2022-12-12T11:05:40.847Z,66.55
2022-12-12T11:08:20.384Z,66.18
2022-12-12T11:11:02.914Z,66.43
2022-12-12T11:13:29.910Z,65.84
2022-12-12T11:16:13.643Z,66.98
2022-12-12T11:18:40.380Z,66.00
2022-12-12T11:21:13.112Z,65.78
2022-12-12T11:23:43.648Z,65.74
2022-12-12T11:26:16.703Z,65.49
2022-12-12T11:28:46.805Z,65.95
2022-12-12T11:31:18.897Z,65.65
2022-12-12T11:33:49.158Z,65.74
2022-12-12T11:36:19.343Z,65.75
2022-12-12T11:38:49.586Z,66.10
2022-12-12T11:41:16.266Z,65.74
2022-12-12T11:43:45.486Z,65.04
2022-12-12T11:46:14.841Z,65.66
2022-12-12T11:49:00.537Z,65.76
2022-12-12T11:51:36.649Z,65.55
2022-12-12T11:54:14.586Z,65.72
2022-12-12T11:56:57.537Z,66.15
2022-12-12T11:59:42.040Z,66.59
2022-12-12T12:02:46.041Z,65.80
2022-12-12T12:05:20.386Z,65.39
2022-12-12T12:08:02.524Z,65.21
2022-12-12T12:11:00.153Z,66.05
2022-12-12T12:13:46.597Z,65.43
2022-12-12T12:16:20.262Z,66.40
2022-12-12T12:19:05.415Z,64.71
2022-12-12T12:21:50.742Z,64.96
2022-12-12T12:24:38.166Z,65.83
2022-12-12T12:27:22.647Z,66.00
2022-12-12T12:29:52.090Z,65.62
2022-12-12T12:32:21.181Z,66.58
2022-12-12T12:35:02.794Z,66.38
2022-12-12T12:37:29.081Z,65.84
2022-12-12T12:40:01.439Z,66.17
2022-12-12T12:42:49.891Z,65.93
2022-12-12T12:45:19.428Z,65.39
2022-12-12T12:47:52.653Z,65.21
2022-12-12T12:50:24.269Z,66.48
2022-12-12T12:52:57.036Z,66.81
2022-12-12T12:55:35.172Z,66.25
2022-12-12T12:58:06.135Z,66.03
2022-12-12T13:00:35.620Z,66.16
2022-12-12T13:03:19.065Z,65.62
2022-12-12T13:05:51.298Z,65.78
2022-12-12T13:08:54.308Z,64.96
2022-12-12T13:11:38.772Z,66.05
2022-12-12T13:14:16.622Z,66.62
2022-12-12T13:16:44.226Z,65.32
2022-12-12T13:19:32.113Z,65.15
2022-12-12T13:22:16.550Z,64.14
2022-12-12T13:25:07.710Z,64.35
2022-12-12T13:27:45.458Z,65.25
2022-12-12T13:30:22.588Z,64.37
2022-12-12T13:32:51.885Z,65.01
2022-12-12T13:35:48.011Z,64.06
2022-12-12T13:38:21.982Z,63.74
2022-12-12T13:41:00.047Z,64.95
2022-12-12T13:43:42.811Z,65.32
2022-12-12T13:46:19.890Z,64.53
2022-12-12T13:49:21.436Z,64.05
2022-12-12T13:51:47.896Z,65.06
2022-12-12T13:54:14.876Z,65.33
2022-12-12T13:56:46.143Z,64.60
2022-12-12T13:59:21.790Z,63.88
2022-12-12T14:01:55.664Z,63.42
2022-12-12T14:04:29.607Z,64.07
2022-12-12T14:07:02.213Z,63.72
2022-12-12T14:09:47.024Z,64.57
2022-12-12T14:12:30.701Z,63.96
2022-12-12T14:15:01.848Z,63.66
2022-12-12T14:17:34.299Z,64.24
2022-12-12T14:20:06.948Z,64.87
2022-12-12T14:22:36.149Z,64.46
2022-12-12T14:25:14.382Z,64.65
2022-12-12T14:27:49.959Z,65.35
2022-12-12T14:30:22.761Z,65.13
2022-12-12T14:32:53.588Z,64.50
2022-12-12T14:35:34.253Z,64.17
2022-12-12T14:38:38.260Z,63.60
2022-12-12T14:41:15.153Z,65.45
2022-12-12T14:44:37.260Z,65.36
2022-12-12T14:46:42.295Z,64.04
2022-12-12T14:49:15.274Z,64.38
2022-12-12T14:51:43.993Z,64.42
2022-12-12T14:54:21.184Z,64.61
2022-12-12T14:56:53.039Z,64.85
2022-12-12T14:59:25.484Z,64.87
2022-12-12T15:02:25.922Z,64.48
2022-12-12T15:05:04.561Z,64.38
2022-12-12T15:07:34.213Z,64.25
2022-12-12T15:10:01.112Z,64.01
2022-12-12T15:12:34.688Z,63.82
2022-12-12T15:15:01.566Z,63.31
2022-12-12T15:17:36.262Z,63.58
2022-12-12T15:20:15.020Z,64.36
2022-12-12T15:22:54.185Z,64.50
2022-12-12T15:25:24.105Z,64.49
2022-12-12T15:27:56.063Z,64.10
2022-12-12T15:30:32.907Z,64.50
2022-12-12T15:33:01.647Z,64.21
2022-12-12T15:35:28.342Z,64.58
2022-12-12T15:38:03.193Z,63.37
2022-12-12T15:40:33.017Z,64.32
2022-12-12T15:43:07.133Z,63.72
2022-12-12T15:45:39.782Z,63.85
2022-12-12T15:48:07.979Z,63.23
2022-12-12T15:50:43.544Z,63.61
2022-12-12T15:53:31.347Z,63.49
2022-12-12T15:55:59.507Z,63.19
2022-12-12T15:58:39.293Z,62.78
2022-12-12T16:01:20.453Z,61.97
2022-12-12T16:04:26.041Z,63.19
2022-12-12T16:06:52.424Z,62.34
2022-12-12T16:09:21.757Z,62.32
2022-12-12T16:11:48.211Z,62.73
2022-12-12T16:14:42.178Z,62.79
2022-12-12T16:17:17.249Z,61.91
2022-12-12T16:20:02.388Z,61.63
2022-12-12T16:22:32.446Z,61.73
2022-12-12T16:25:17.708Z,62.07
2022-12-12T16:27:44.911Z,62.60
2022-12-12T16:30:14.357Z,62.21
2022-12-12T16:32:41.351Z,62.30
2022-12-12T16:35:08.220Z,62.94
2022-12-12T16:37:34.710Z,62.99
2022-12-12T16:40:01.187Z,62.03
2022-12-12T16:42:28.465Z,63.03
2022-12-12T16:44:54.962Z,64.28
2022-12-12T16:47:23.856Z,64.04
2022-12-12T16:49:51.245Z,63.53
2022-12-12T16:52:20.450Z,64.17
2022-12-12T16:54:53.145Z,63.75
2022-12-12T16:57:21.585Z,64.72
2022-12-12T16:59:48.076Z,63.72
2022-12-12T17:02:20.307Z,64.25
2022-12-12T17:04:47.081Z,64.18
2022-12-12T17:07:13.964Z,64.09
2022-12-12T17:09:40.509Z,65.02
2022-12-12T17:12:08.929Z,63.38
2022-12-12T17:14:37.381Z,64.25
2022-12-12T17:17:04.999Z,63.68
2022-12-12T17:19:32.385Z,64.54
2022-12-12T17:21:58.973Z,64.34
2022-12-12T17:24:25.426Z,65.13
2022-12-12T17:26:52.153Z,65.39
2022-12-12T17:29:18.888Z,65.51
2022-12-12T17:31:45.408Z,64.30
2022-12-12T17:34:11.936Z,66.21
2022-12-12T17:36:38.401Z,65.23
2022-12-12T17:39:05.003Z,65.72
2022-12-12T17:41:31.522Z,65.59
2022-12-12T17:43:58.222Z,66.04
2022-12-12T17:46:27.660Z,65.27
2022-12-12T17:48:56.687Z,64.88
2022-12-12T17:51:24.210Z,65.06
2022-12-12T17:53:52.461Z,66.49
2022-12-12T17:56:24.426Z,65.64
2022-12-12T17:58:51.117Z,65.46
2022-12-12T18:01:23.837Z,65.11
2022-12-12T18:03:51.058Z,65.11
2022-12-12T18:06:18.923Z,65.67
2022-12-12T18:08:46.149Z,65.39
2022-12-12T18:11:15.368Z,65.19
2022-12-12T18:13:42.500Z,66.69
2022-12-12T18:16:11.759Z,66.53
2022-12-12T18:18:38.836Z,65.74
2022-12-12T18:21:35.768Z,66.60
2022-12-12T18:24:04.384Z,66.37
2022-12-12T18:26:30.908Z,66.06
2022-12-12T18:29:02.444Z,65.44
2022-12-12T18:31:29.283Z,65.78
2022-12-12T18:33:57.421Z,65.64
2022-12-12T18:36:29.152Z,65.49
2022-12-12T18:38:56.844Z,66.95
2022-12-12T18:41:24.107Z,67.20
2022-12-12T18:43:50.544Z,67.62
2022-12-12T18:46:19.636Z,66.55
2022-12-12T18:48:47.694Z,67.80
2022-12-12T18:51:17.071Z,67.53
2022-12-12T18:53:44.448Z,67.51
2022-12-12T18:56:16.489Z,66.63
2022-12-12T18:58:44.018Z,67.60
2022-12-12T19:01:14.396Z,67.11
2022-12-12T19:03:42.945Z,66.60
2022-12-12T19:06:12.616Z,67.84
2022-12-12T19:08:40.061Z,67.62
2022-12-12T19:11:08.000Z,66.77
2022-12-12T19:13:34.618Z,67.54
2022-12-12T19:16:09.397Z,66.98
2022-12-12T19:18:35.826Z,67.99
2022-12-12T19:21:15.654Z,67.45
2022-12-12T19:23:42.992Z,68.10
2022-12-12T19:26:15.228Z,68.70
2022-12-12T19:28:42.394Z,68.97
2022-12-12T19:31:12.674Z,68.09
2022-12-12T19:33:39.713Z,68.40
2022-12-12T19:36:18.358Z,67.75
2022-12-12T19:38:46.012Z,68.43
2022-12-12T19:41:14.644Z,68.36
2022-12-12T19:43:42.736Z,69.47
2022-12-12T19:46:15.685Z,69.39
2022-12-12T19:48:43.336Z,69.17
2022-12-12T19:51:12.811Z,69.47
2022-12-12T19:53:41.828Z,68.50
2022-12-12T19:56:12.541Z,69.56
2022-12-12T19:58:39.868Z,70.35
2022-12-12T20:01:12.839Z,70.71
2022-12-12T20:03:40.131Z,69.00
2022-12-12T20:06:10.710Z,69.53
2022-12-12T20:08:38.127Z,69.38
2022-12-12T20:11:10.898Z,68.51
2022-12-12T20:13:38.044Z,68.86
2022-12-12T20:16:16.246Z,68.38
2022-12-12T20:18:43.043Z,67.95
2022-12-12T20:21:16.840Z,67.50
2022-12-12T20:23:55.048Z,66.43
2022-12-12T20:26:24.616Z,66.75
2022-12-12T20:28:52.674Z,66.18
2022-12-12T20:31:21.780Z,65.98
2022-12-12T20:33:49.240Z,65.76
2022-12-12T20:36:18.472Z,64.52
2022-12-12T20:38:46.002Z,65.55
2022-12-12T20:41:17.926Z,66.10
2022-12-12T20:43:45.337Z,66.11
2022-12-12T20:46:20.284Z,65.29
2022-12-12T20:48:48.159Z,64.16
2022-12-12T20:51:52.959Z,65.18
2022-12-12T20:54:07.798Z,65.67
2022-12-12T20:56:35.084Z,66.19
2022-12-12T20:59:03.538Z,66.41
2022-12-12T21:01:33.639Z,65.89
2022-12-12T21:04:01.917Z,65.81
2022-12-12T21:06:37.598Z,65.78
2022-12-12T21:09:09.540Z,64.37
2022-12-12T21:11:37.586Z,66.27
2022-12-12T21:14:04.293Z,65.47
2022-12-12T21:16:33.686Z,66.39
2022-12-12T21:19:03.339Z,66.57
2022-12-12T21:21:30.361Z,65.91
2022-12-12T21:23:57.656Z,66.04
2022-12-12T21:26:28.970Z,65.95
2022-12-12T21:28:56.576Z,66.00
2022-12-12T21:31:29.744Z,66.95
2022-12-12T21:33:56.919Z,67.37
2022-12-12T21:36:24.411Z,66.76
2022-12-12T21:38:52.803Z,67.30
2022-12-12T21:41:22.706Z,65.83
2022-12-12T21:43:50.092Z,67.36
2022-12-12T21:46:19.967Z,65.99
2022-12-12T21:48:46.998Z,66.79
2022-12-12T21:51:16.076Z,66.13
2022-12-12T21:53:42.960Z,66.61
2022-12-12T21:56:12.988Z,66.39
2022-12-12T21:58:40.744Z,66.01
2022-12-12T22:01:13.854Z,66.01
2022-12-12T22:03:40.868Z,65.05
2022-12-12T22:06:23.373Z,65.05
2022-12-12T22:08:50.311Z,65.84
2022-12-12T22:11:30.985Z,65.64
2022-12-12T22:14:06.343Z,63.98
2022-12-12T22:16:36.179Z,63.63
2022-12-12T22:19:06.506Z,64.16
2022-12-12T22:21:33.469Z,64.44
2022-12-12T22:24:00.220Z,63.93
2022-12-12T22:26:38.322Z,64.25
2022-12-12T22:29:08.059Z,63.12
2022-12-12T22:31:37.474Z,64.22
2022-12-12T22:34:07.433Z,63.98
2022-12-12T22:36:37.529Z,65.42
2022-12-12T22:39:06.379Z,64.44
2022-12-12T22:41:33.117Z,65.00
2022-12-12T22:44:03.634Z,65.39
2022-12-12T22:46:30.428Z,66.58
2022-12-12T22:48:59.971Z,66.63
2022-12-12T22:51:29.041Z,66.44
2022-12-12T22:53:56.832Z,65.14
2022-12-12T22:56:23.354Z,65.09
2022-12-12T22:58:49.973Z,65.68
2022-12-12T23:01:18.781Z,64.97
2022-12-12T23:03:46.483Z,65.41
2022-12-12T23:06:21.700Z,66.45
2022-12-12T23:08:59.584Z,64.62
2022-12-12T23:11:28.199Z,65.54
2022-12-12T23:13:56.802Z,65.84
2022-12-12T23:16:27.558Z,65.26
2022-12-12T23:18:54.679Z,64.91
2022-12-12T23:21:25.346Z,65.69
2022-12-12T23:23:52.468Z,65.78
2022-12-12T23:26:21.210Z,65.64
2022-12-12T23:28:48.467Z,65.86
2022-12-12T23:31:18.704Z,66.25
2022-12-12T23:33:45.853Z,66.55
2022-12-12T23:36:14.088Z,66.30
2022-12-12T23:38:40.854Z,65.69
2022-12-12T23:41:13.021Z,66.63
2022-12-12T23:43:40.048Z,66.35
2022-12-12T23:46:09.323Z,65.39
2022-12-12T23:48:35.806Z,66.06
2022-12-12T23:51:02.371Z,66.01
2022-12-12T23:53:31.610Z,66.17
2022-12-12T23:56:04.484Z,66.72
2022-12-12T23:58:30.883Z,65.27
